createdAt,value
2023-01-19T07:51:54.728Z,19.90
2023-01-19T08:01:58.063Z,20.40
2023-01-19T08:11:59.637Z,20.60
2023-01-19T08:22:01.013Z,20.60
2023-01-19T08:32:02.547Z,20.60
2023-01-19T08:52:05.928Z,20.80
2023-01-19T09:02:07.362Z,20.90
2023-01-19T09:12:08.844Z,20.90
2023-01-19T09:22:10.243Z,21.20
2023-01-19T09:32:11.786Z,21.40
2023-01-19T09:42:13.217Z,21.60
2023-01-19T09:52:14.613Z,21.70
2023-01-19T10:02:16.013Z,21.60
2023-01-19T10:12:19.122Z,21.70
2023-01-19T10:22:21.972Z,21.60
2023-01-19T10:32:23.358Z,21.60
2023-01-19T10:42:24.808Z,21.60
2023-01-19T10:52:26.239Z,21.50
2023-01-19T11:02:27.853Z,21.50
2023-01-19T11:12:29.445Z,21.30
2023-01-19T11:22:30.840Z,21.20
2023-01-19T11:32:32.236Z,21.20
2023-01-19T11:42:33.627Z,21.10
2023-01-19T11:52:35.103Z,21.10
2023-01-19T12:02:36.551Z,20.80
2023-01-19T12:12:37.965Z,20.80
2023-01-19T12:22:39.325Z,20.90
2023-01-19T12:32:40.707Z,20.90
2023-01-19T12:42:42.106Z,20.90
2023-01-19T12:52:43.499Z,21.10
2023-01-19T13:02:44.931Z,21.20
2023-01-19T13:12:46.412Z,21.20
2023-01-19T13:22:47.812Z,21.20
2023-01-19T13:32:49.219Z,21.10
2023-01-19T13:42:50.600Z,21.10
2023-01-19T13:52:51.991Z,21.10
2023-01-19T14:02:53.532Z,20.80
2023-01-19T14:12:59.579Z,20.90
2023-01-19T14:23:01.141Z,21.10
2023-01-19T14:33:02.574Z,21.10
2023-01-19T14:43:03.980Z,21.40
2023-01-19T14:53:05.393Z,21.20
2023-01-19T15:03:06.807Z,21.10
2023-01-19T15:13:08.206Z,21.10
2023-01-19T15:23:09.616Z,21.00
2023-01-19T15:33:11.068Z,21.00
2023-01-19T15:43:12.491Z,21.00
2023-01-19T15:53:13.881Z,20.90
2023-01-19T16:03:15.277Z,20.90
2023-01-19T16:13:16.687Z,20.90
2023-01-19T16:23:18.083Z,20.80
2023-01-19T16:33:19.464Z,20.70
2023-01-19T16:43:20.842Z,20.70
2023-01-19T16:53:22.240Z,20.70
